Time;durP1;ratioP1;P1;durP2;ratioP2;P2;SDS_P1;SDS_P2;PMS_P1;PMS_P2;Temp;Humidity;BMP_temperature;BMP_pressure;BME280_temperature;BME280_humidity;BME280_pressure;Samples;Min_cycle;Max_cycle;Signal;HPM_P1;HPM_P2
2021/06/07 00:01:52;;;;;;;;;;;;;;;17.14;60.70;100835.66;4917401;29;20013;-64
2021/06/07 00:04:18;;;;;;;;;;;;;;;17.11;60.62;100841.94;4917247;29;20021;-64
2021/06/07 00:06:45;;;;;;;;;;;;;;;17.09;60.88;100838.56;4917268;29;20009;-64
2021/06/07 00:09:13;;;;;;;;;;;;;;;17.09;60.65;100834.91;4917303;29;20026;-65
2021/06/07 00:11:41;;;;;;;;;;;;;;;17.08;60.79;100838.91;4917229;29;20006;-65
2021/06/07 00:14:07;;;;;;;;;;;;;;;17.07;60.68;100835.25;4917149;29;19923;-65
2021/06/07 00:16:35;;;;;;;;;;;;;;;17.03;61.02;100840.69;4917170;29;19929;-65
2021/06/07 00:19:05;;;;;;;;;;;;;;;17.00;60.89;100844.16;4917340;29;19966;-65
2021/06/07 00:21:32;;;;;;;;;;;;;;;16.98;61.55;100839.97;4900337;29;20014;-64
2021/06/07 00:23:59;;;;;;;;;;;;;;;16.91;61.71;100842.38;4917329;29;20033;-65
2021/06/07 00:26:26;;;;;;;;;;;;;;;16.87;61.80;100836.53;4917140;29;20014;-65
2021/06/07 00:28:54;;;;;;;;;;;;;;;16.87;61.80;100839.38;4917504;29;20009;-63
2021/06/07 00:31:21;;;;;;;;;;;;;;;16.87;61.92;100838.53;4916999;29;20443;-64
2021/06/07 00:33:48;;;;;;;;;;;;;;;16.87;61.66;100828.09;4916989;29;20443;-64
2021/06/07 00:36:20;;;;;;;;;;;;;;;16.88;61.55;100831.72;4916995;29;20010;-64
2021/06/07 00:38:48;;;;;;;;;;;;;;;16.88;61.78;100821.28;4917374;29;20354;-64
2021/06/07 00:41:15;;;;;;;;;;;;;;;16.86;62.28;100822.78;4916981;29;19929;-64
2021/06/07 00:43:41;;;;;;;;;;;;;;;16.80;62.46;100824.84;4917148;29;19923;-64
2021/06/07 00:46:08;;;;;;;;;;;;;;;16.70;63.33;100820.25;4916861;29;20443;-64
2021/06/07 00:48:35;;;;;;;;;;;;;;;16.62;63.88;100818.19;4900330;29;20009;-64
2021/06/07 00:51:04;;;;;;;;;;;;;;;16.58;63.85;100822.75;4917871;29;20321;-64
2021/06/07 00:53:32;;;;;;;;;;;;;;;16.50;64.29;100820.69;4916814;29;19929;-64
2021/06/07 00:56:00;;;;;;;;;;;;;;;16.40;64.34;100815.25;4918628;29;19923;-64
2021/06/07 00:58:35;;;;;;;;;;;;;;;16.31;64.81;100816.00;4920402;29;19931;-64
2021/06/07 01:01:03;;;;;;;;;;;;;;;16.24;65.49;100817.53;4920632;29;20005;-64
2021/06/07 01:03:30;;;;;;;;;;;;;;;16.12;65.87;100815.25;4920238;29;19923;-64
2021/06/07 01:05:57;;;;;;;;;;;;;;;16.15;66.12;100814.63;4920439;29;20090;-64
2021/06/07 01:08:24;;;;;;;;;;;;;;;16.13;66.27;100811.28;4920200;29;20014;-64
2021/06/07 01:10:51;;;;;;;;;;;;;;;16.12;66.71;100806.78;4920347;29;20009;-64
2021/06/07 01:13:18;;;;;;;;;;;;;;;16.08;66.73;100817.03;4920450;29;19922;-64
2021/06/07 01:15:47;;;;;;;;;;;;;;;16.15;66.66;100813.78;4920104;29;19923;-64
2021/06/07 01:18:15;;;;;;;;;;;;;;;16.15;66.80;100819.44;4919875;29;20411;-64
2021/06/07 01:20:43;;;;;;;;;;;;;;;16.19;67.14;100804.38;4919963;29;19973;-64
2021/06/07 01:23:10;;;;;;;;;;;;;;;16.20;67.33;100805.22;4920162;29;19923;-64
2021/06/07 01:25:38;;;;;;;;;;;;;;;16.16;67.17;100809.81;4920719;29;20339;-64
2021/06/07 01:28:05;;;;;;;;;;;;;;;16.13;67.23;100813.25;4920056;29;20407;-64
2021/06/07 01:30:33;;;;;;;;;;;;;;;16.11;67.83;100807.94;4903111;29;19985;-64
2021/06/07 01:33:01;;;;;;;;;;;;;;;16.09;67.74;100816.69;4919722;29;19930;-64
2021/06/07 01:35:28;;;;;;;;;;;;;;;16.11;68.13;100810.75;4919711;29;19923;-64
2021/06/07 01:37:56;;;;;;;;;;;;;;;16.02;68.80;100804.16;4919894;29;19923;-64
2021/06/07 01:40:24;;;;;;;;;;;;;;;15.94;69.20;100808.56;4919924;29;20022;-64
2021/06/07 01:42:51;;;;;;;;;;;;;;;15.93;69.04;100817.28;4919777;29;19923;-64
2021/06/07 01:45:19;;;;;;;;;;;;;;;15.99;68.81;100808.44;4919474;29;19934;-64
2021/06/07 01:47:46;;;;;;;;;;;;;;;16.01;69.14;100816.59;4919789;29;20001;-64
2021/06/07 01:50:13;;;;;;;;;;;;;;;15.97;69.16;100812.72;4919416;29;19963;-64
2021/06/07 01:52:43;;;;;;;;;;;;;;;15.93;69.42;100812.53;4919722;29;19929;-64
2021/06/07 01:55:16;;;;;;;;;;;;;;;15.88;69.62;100810.63;4919444;29;20000;-67
2021/06/07 01:57:43;;;;;;;;;;;;;;;16.02;69.21;100809.81;4919455;29;19974;-64
2021/06/07 02:00:12;;;;;;;;;;;;;;;16.17;68.57;100811.47;4919290;29;20098;-64
2021/06/07 02:02:43;;;;;;;;;;;;;;;16.27;68.63;100808.47;4919135;29;20017;-64
2021/06/07 02:05:10;;;;;;;;;;;;;;;16.29;68.45;100809.81;4919504;29;19947;-64
2021/06/07 02:07:41;;;;;;;;;;;;;;;16.25;68.53;100803.16;4918199;29;20425;-64
2021/06/07 02:10:08;;;;;;;;;;;;;;;16.14;69.08;100812.97;4919398;29;19950;-65
2021/06/07 02:12:35;;;;;;;;;;;;;;;16.06;69.49;100805.22;4919039;29;20356;-64
2021/06/07 02:15:03;;;;;;;;;;;;;;;16.03;69.58;100805.84;4919778;29;20356;-65
2021/06/07 02:17:30;;;;;;;;;;;;;;;15.95;70.11;100804.56;4919125;29;19966;-65
2021/06/07 02:19:57;;;;;;;;;;;;;;;15.84;70.72;100803.09;4918916;29;19972;-64
2021/06/07 02:22:23;;;;;;;;;;;;;;;15.74;71.22;100801.31;4918775;29;20030;-63
2021/06/07 02:24:50;;;;;;;;;;;;;;;15.67;71.60;100797.22;4919009;29;20006;-63
2021/06/07 02:27:17;;;;;;;;;;;;;;;15.61;71.96;100790.81;4919056;29;19937;-63
2021/06/07 02:29:43;;;;;;;;;;;;;;;15.73;71.54;100802.47;4918741;29;20018;-63
2021/06/07 02:32:10;;;;;;;;;;;;;;;15.81;71.40;100787.66;4918937;29;20006;-63
2021/06/07 02:34:37;;;;;;;;;;;;;;;15.82;71.65;100800.59;4918666;29;20018;-63
2021/06/07 02:37:04;;;;;;;;;;;;;;;15.84;71.76;100792.66;4918633;29;19966;-63
2021/06/07 02:39:30;;;;;;;;;;;;;;;15.94;71.09;100788.00;4918490;29;20017;-63
2021/06/07 02:41:57;;;;;;;;;;;;;;;15.97;71.27;100801.47;4918493;29;20450;-63
2021/06/07 02:44:24;;;;;;;;;;;;;;;15.96;71.17;100800.59;4918295;29;20021;-63
2021/06/07 02:46:51;;;;;;;;;;;;;;;15.94;71.16;100790.81;4918416;29;20026;-64
2021/06/07 02:49:18;;;;;;;;;;;;;;;15.96;71.12;100796.97;4918388;29;19966;-64
2021/06/07 02:51:44;;;;;;;;;;;;;;;16.07;70.53;100787.19;4918568;29;20468;-65
2021/06/07 02:54:11;;;;;;;;;;;;;;;16.18;70.20;100796.25;4918320;29;20014;-64
2021/06/07 02:56:37;;;;;;;;;;;;;;;16.25;70.04;100788.22;4918136;29;19927;-65
2021/06/07 02:59:04;;;;;;;;;;;;;;;16.29;70.07;100795.72;4918654;29;20018;-65
2021/06/07 03:01:31;;;;;;;;;;;;;;;16.30;69.70;100790.94;4918475;29;20290;-64
2021/06/07 03:03:58;;;;;;;;;;;;;;;16.26;69.77;100784.25;4918360;29;19977;-66
2021/06/07 03:06:24;;;;;;;;;;;;;;;16.27;69.93;100788.72;4918200;29;20025;-67
2021/06/07 03:08:51;;;;;;;;;;;;;;;16.25;70.08;100786.25;4918376;29;20333;-65
2021/06/07 03:11:18;;;;;;;;;;;;;;;16.24;70.04;100783.72;4918047;29;19933;-64
2021/06/07 03:13:44;;;;;;;;;;;;;;;16.10;70.59;100795.84;4918254;29;19957;-64
2021/06/07 03:16:11;;;;;;;;;;;;;;;16.10;70.77;100790.22;4918098;29;20013;-64
2021/06/07 03:18:39;;;;;;;;;;;;;;;16.11;70.60;100802.31;4917692;29;19930;-64
2021/06/07 03:21:06;;;;;;;;;;;;;;;16.07;70.89;100806.91;4918061;29;20010;-63
2021/06/07 03:23:34;;;;;;;;;;;;;;;16.01;71.15;100796.88;4917992;29;20010;-64
2021/06/07 03:26:02;;;;;;;;;;;;;;;16.02;70.86;100795.72;4917768;29;19962;-64
2021/06/07 03:28:29;;;;;;;;;;;;;;;16.08;70.81;100792.50;4918044;29;19958;-63
2021/06/07 03:30:56;;;;;;;;;;;;;;;16.04;70.86;100801.88;4917980;29;19955;-63
2021/06/07 03:33:24;;;;;;;;;;;;;;;16.01;71.02;100800.53;4917658;29;19923;-63
2021/06/07 03:35:52;;;;;;;;;;;;;;;15.93;71.50;100801.25;4917867;29;19973;-63
2021/06/07 03:38:19;;;;;;;;;;;;;;;15.77;71.94;100795.06;4917594;29;20013;-64
2021/06/07 03:40:47;;;;;;;;;;;;;;;15.64;72.34;100796.66;4917771;29;20383;-63
2021/06/07 03:43:15;;;;;;;;;;;;;;;15.55;72.69;100798.50;4917454;29;19978;-63
2021/06/07 03:45:42;;;;;;;;;;;;;;;15.54;72.94;100801.63;4917740;29;19923;-63
2021/06/07 03:48:08;;;;;;;;;;;;;;;15.56;72.91;100802.19;4917738;29;20022;-63
2021/06/07 03:50:36;;;;;;;;;;;;;;;15.58;72.73;100797.88;4917991;29;20387;-63
2021/06/07 03:53:04;;;;;;;;;;;;;;;15.58;72.89;100788.59;4900586;29;20013;-63
2021/06/07 03:55:31;;;;;;;;;;;;;;;15.56;73.10;100785.28;4918462;29;19926;-63
2021/06/07 03:57:58;;;;;;;;;;;;;;;15.56;73.28;100786.13;4917225;29;20018;-63
2021/06/07 04:00:26;;;;;;;;;;;;;;;15.57;73.39;100781.31;4917284;29;20386;-63
2021/06/07 04:02:53;;;;;;;;;;;;;;;15.57;73.43;100786.94;4917570;29;19922;-63
2021/06/07 04:05:20;;;;;;;;;;;;;;;15.59;73.29;100790.31;4900509;29;20010;-63
2021/06/07 04:07:47;;;;;;;;;;;;;;;15.65;73.13;100791.84;4917549;29;20017;-63
2021/06/07 04:10:16;;;;;;;;;;;;;;;15.69;73.25;100790.16;4917113;29;20405;-63
2021/06/07 04:12:43;;;;;;;;;;;;;;;15.70;73.17;100794.63;4917566;29;20336;-63
2021/06/07 04:15:10;;;;;;;;;;;;;;;15.70;73.61;100789.00;4917388;29;19985;-63
2021/06/07 04:17:37;;;;;;;;;;;;;;;15.69;73.74;100798.59;4917273;29;20006;-63
2021/06/07 04:20:05;;;;;;;;;;;;;;;15.63;73.96;100796.97;4917132;29;19930;-63
2021/06/07 04:22:32;;;;;;;;;;;;;;;15.58;73.98;100789.44;4917330;29;20312;-63
2021/06/07 04:24:59;;;;;;;;;;;;;;;15.60;74.04;100795.63;4917387;29;20344;-63
2021/06/07 04:27:25;;;;;;;;;;;;;;;15.69;73.62;100790.16;4917440;29;19923;-63
2021/06/07 04:29:53;;;;;;;;;;;;;;;15.81;73.28;100798.09;4917167;29;20419;-63
2021/06/07 04:32:19;;;;;;;;;;;;;;;15.80;73.18;100800.06;4921060;29;20006;-63
2021/06/07 04:34:46;;;;;;;;;;;;;;;15.72;73.43;100800.78;4921095;29;20009;-63
2021/06/07 04:37:13;;;;;;;;;;;;;;;15.67;73.85;100803.69;4921076;29;20010;-63
2021/06/07 04:39:40;;;;;;;;;;;;;;;15.60;74.25;100797.59;4920655;29;19984;-63
2021/06/07 04:42:07;;;;;;;;;;;;;;;15.54;74.28;100804.44;4920665;29;19923;-63
2021/06/07 04:44:34;;;;;;;;;;;;;;;15.37;75.23;100794.59;4920859;29;19993;-63
2021/06/07 04:47:01;;;;;;;;;;;;;;;15.23;75.64;100799.31;4920596;29;20384;-63
2021/06/07 04:49:27;;;;;;;;;;;;;;;15.18;75.82;100796.63;4920497;29;19929;-63
2021/06/07 04:51:54;;;;;;;;;;;;;;;15.13;76.08;100793.88;4920421;29;20021;-63
2021/06/07 04:54:21;;;;;;;;;;;;;;;15.05;76.69;100794.56;4920696;29;20085;-63
2021/06/07 04:56:47;;;;;;;;;;;;;;;14.99;76.94;100795.78;4919560;29;20013;-63
2021/06/07 04:59:14;;;;;;;;;;;;;;;14.96;76.99;100782.31;4920180;29;19923;-64
2021/06/07 05:01:44;;;;;;;;;;;;;;;14.97;77.28;100789.59;4920593;29;19923;-64
2021/06/07 05:04:10;;;;;;;;;;;;;;;14.91;77.44;100794.50;4920131;29;19926;-64
2021/06/07 05:06:37;;;;;;;;;;;;;;;14.83;77.94;100790.38;4903772;29;19973;-64
2021/06/07 05:09:04;;;;;;;;;;;;;;;14.84;77.93;100786.44;4920425;29;19929;-63
2021/06/07 05:11:31;;;;;;;;;;;;;;;14.84;77.93;100792.06;4920088;29;20009;-64
2021/06/07 05:13:57;;;;;;;;;;;;;;;14.95;77.71;100780.66;4920032;29;20022;-63
2021/06/07 05:16:24;;;;;;;;;;;;;;;15.12;77.15;100797.81;4920323;29;20026;-63
2021/06/07 05:18:51;;;;;;;;;;;;;;;15.05;77.24;100798.22;4919802;29;20006;-64
2021/06/07 05:21:17;;;;;;;;;;;;;;;15.00;77.07;100794.63;4920221;29;20022;-63
2021/06/07 05:23:45;;;;;;;;;;;;;;;15.03;76.97;100794.84;4919899;29;19923;-63
2021/06/07 05:26:11;;;;;;;;;;;;;;;15.15;76.51;100795.25;4919898;29;19974;-63
2021/06/07 05:28:38;;;;;;;;;;;;;;;15.26;76.22;100804.34;4920293;29;19929;-63
2021/06/07 05:31:05;;;;;;;;;;;;;;;15.22;76.30;100802.47;4920400;29;20359;-63
2021/06/07 05:33:31;;;;;;;;;;;;;;;15.17;76.21;100801.38;4919755;29;20005;-63
2021/06/07 05:35:58;;;;;;;;;;;;;;;15.20;76.28;100799.09;4919701;29;20022;-63
2021/06/07 05:38:25;;;;;;;;;;;;;;;15.22;76.29;100803.28;4920004;29;19922;-63
2021/06/07 05:40:54;;;;;;;;;;;;;;;15.27;76.12;100813.63;4919625;29;20017;-63
2021/06/07 05:43:23;;;;;;;;;;;;;;;15.33;75.88;100806.78;4919483;29;19970;-63
2021/06/07 05:45:51;;;;;;;;;;;;;;;15.29;76.06;100815.00;4920630;29;19970;-63
2021/06/07 05:48:17;;;;;;;;;;;;;;;15.33;75.76;100816.03;4902601;29;20351;-63
2021/06/07 05:50:49;;;;;;;;;;;;;;;15.24;76.17;100815.06;4919460;29;20380;-63
2021/06/07 05:53:17;;;;;;;;;;;;;;;15.15;76.37;100819.72;4919668;29;20347;-63
2021/06/07 05:55:45;;;;;;;;;;;;;;;15.17;76.49;100823.06;4902630;29;20022;-64
2021/06/07 05:58:13;;;;;;;;;;;;;;;15.20;76.15;100814.00;4919630;29;19998;-63
2021/06/07 06:00:41;;;;;;;;;;;;;;;15.18;76.39;100813.50;4919309;29;20025;-64
2021/06/07 06:03:08;;;;;;;;;;;;;;;15.18;76.37;100816.31;4919555;29;20028;-64
2021/06/07 06:05:35;;;;;;;;;;;;;;;15.28;76.07;100818.97;4919096;29;19984;-64
2021/06/07 06:08:04;;;;;;;;;;;;;;;15.36;75.87;100826.69;4919466;29;19998;-63
2021/06/07 06:10:30;;;;;;;;;;;;;;;15.40;75.50;100824.09;4919095;29;20013;-63
2021/06/07 06:12:57;;;;;;;;;;;;;;;15.47;75.41;100826.53;4919082;29;20010;-63
2021/06/07 06:15:25;;;;;;;;;;;;;;;15.51;75.15;100833.22;4919268;29;19923;-63
2021/06/07 06:17:52;;;;;;;;;;;;;;;15.52;75.00;100841.38;4918899;29;19923;-64
2021/06/07 06:20:19;;;;;;;;;;;;;;;15.37;75.43;100838.78;4919215;29;20032;-64
2021/06/07 06:22:46;;;;;;;;;;;;;;;15.23;75.91;100846.31;4918912;29;19981;-64
2021/06/07 06:25:14;;;;;;;;;;;;;;;15.19;75.90;100842.47;4918720;29;20030;-64
2021/06/07 06:27:42;;;;;;;;;;;;;;;15.12;75.95;100842.84;4918737;29;20356;-68
2021/06/07 06:30:11;;;;;;;;;;;;;;;15.03;76.10;100830.59;4918782;29;20030;-65
2021/06/07 06:32:39;;;;;;;;;;;;;;;15.02;76.36;100840.16;4918707;29;20026;-65
2021/06/07 06:35:06;;;;;;;;;;;;;;;15.02;76.51;100842.97;4918937;29;19994;-64
2021/06/07 06:37:32;;;;;;;;;;;;;;;14.99;76.50;100847.22;4918946;29;19970;-64
2021/06/07 06:40:00;;;;;;;;;;;;;;;14.93;76.65;100845.63;4918873;29;19927;-64
2021/06/07 06:42:26;;;;;;;;;;;;;;;14.99;76.74;100844.41;4918461;29;20023;-64
2021/06/07 06:44:54;;;;;;;;;;;;;;;14.98;76.87;100848.38;4918677;29;19978;-64
2021/06/07 06:47:20;;;;;;;;;;;;;;;15.01;76.73;100847.78;4918684;29;19923;-65
2021/06/07 06:49:47;;;;;;;;;;;;;;;15.03;76.64;100847.47;4918322;29;20000;-64
2021/06/07 06:52:13;;;;;;;;;;;;;;;15.05;76.70;100848.00;4917196;29;19967;-64
2021/06/07 06:54:41;;;;;;;;;;;;;;;15.15;76.55;100842.22;4918142;29;20006;-64
2021/06/07 06:57:09;;;;;;;;;;;;;;;15.31;76.21;100843.66;4918522;29;20059;-64
2021/06/07 06:59:50;;;;;;;;;;;;;;;15.46;75.53;100851.03;4918500;29;19926;-64
2021/06/07 07:02:16;;;;;;;;;;;;;;;15.49;75.25;100852.41;4918405;29;20013;-64
2021/06/07 07:04:43;;;;;;;;;;;;;;;15.45;75.15;100852.16;4918439;29;19923;-64
2021/06/07 07:07:10;;;;;;;;;;;;;;;15.35;75.52;100841.91;4918362;29;20006;-64
2021/06/07 07:09:38;;;;;;;;;;;;;;;15.48;75.35;100848.72;4918282;29;20009;-64
2021/06/07 07:12:05;;;;;;;;;;;;;;;15.54;74.89;100844.69;4918255;29;20010;-64
2021/06/07 07:14:32;;;;;;;;;;;;;;;15.56;74.75;100844.41;4918177;29;19929;-64
2021/06/07 07:16:59;;;;;;;;;;;;;;;15.55;74.50;100846.34;4918959;29;19927;-64
2021/06/07 07:19:26;;;;;;;;;;;;;;;15.52;74.57;100844.19;4917877;29;19923;-64
2021/06/07 07:21:52;;;;;;;;;;;;;;;15.51;74.54;100838.84;4918136;29;19954;-64
2021/06/07 07:24:19;;;;;;;;;;;;;;;15.50;74.52;100849.25;4917709;29;19941;-64
2021/06/07 07:26:46;;;;;;;;;;;;;;;15.55;74.83;100851.16;4917799;29;19970;-64
2021/06/07 07:29:12;;;;;;;;;;;;;;;15.68;74.83;100846.75;4918403;29;20021;-64
2021/06/07 07:31:39;;;;;;;;;;;;;;;15.92;74.82;100855.06;4917685;29;20013;-64
2021/06/07 07:34:06;;;;;;;;;;;;;;;16.34;74.50;100852.00;4917615;29;19923;-64
2021/06/07 07:36:32;;;;;;;;;;;;;;;16.67;74.59;100849.06;4917930;29;20018;-64
2021/06/07 07:38:59;;;;;;;;;;;;;;;16.92;74.49;100861.84;4917874;29;19927;-64
2021/06/07 07:41:27;;;;;;;;;;;;;;;17.04;74.12;100861.28;4917711;29;19923;-64
2021/06/07 07:43:54;;;;;;;;;;;;;;;17.16;74.13;100867.22;4917637;29;19931;-63
2021/06/07 07:46:38;;;;;;;;;;;;;;;17.25;74.03;100864.47;4917667;29;19974;-63
2021/06/07 07:49:09;;;;;;;;;;;;;;;17.32;73.83;100867.69;4917966;29;19931;-64
2021/06/07 07:51:35;;;;;;;;;;;;;;;17.41;73.71;100873.41;4917364;29;20035;-63
2021/06/07 07:54:02;;;;;;;;;;;;;;;17.38;73.38;100868.41;4917623;29;19962;-63
2021/06/07 07:56:29;;;;;;;;;;;;;;;18.16;70.89;100878.31;4900835;29;19935;-63
2021/06/07 07:58:55;;;;;;;;;;;;;;;18.46;69.40;100875.78;4900601;29;20360;-64
2021/06/07 08:01:22;;;;;;;;;;;;;;;18.56;68.82;100875.47;4916335;29;20009;-64
2021/06/07 08:03:49;;;;;;;;;;;;;;;18.72;68.76;100875.09;4917397;29;19930;-64
2021/06/07 08:06:16;;;;;;;;;;;;;;;18.86;68.22;100872.97;4916621;29;19923;-64
2021/06/07 08:08:43;;;;;;;;;;;;;;;18.94;68.34;100875.84;4917163;29;19923;-64
2021/06/07 08:11:11;;;;;;;;;;;;;;;19.00;67.92;100873.66;4917097;29;19929;-64
2021/06/07 08:13:38;;;;;;;;;;;;;;;19.14;67.72;100874.38;4917516;29;19963;-64
2021/06/07 08:16:05;;;;;;;;;;;;;;;19.38;67.65;100873.03;4917944;29;20341;-64
2021/06/07 08:18:32;;;;;;;;;;;;;;;19.74;67.52;100880.41;4917082;29;19923;-64
2021/06/07 08:20:59;;;;;;;;;;;;;;;20.20;67.32;100876.00;4917186;29;19927;-64
2021/06/07 08:23:26;;;;;;;;;;;;;;;20.62;66.63;100871.38;4917382;29;20364;-64
2021/06/07 08:25:53;;;;;;;;;;;;;;;20.92;66.11;100875.06;4916978;29;20398;-64
2021/06/07 08:28:20;;;;;;;;;;;;;;;21.14;65.87;100881.59;4917326;29;20021;-64
2021/06/07 08:30:46;;;;;;;;;;;;;;;21.39;64.94;100866.41;4917007;29;19923;-64
2021/06/07 08:33:14;;;;;;;;;;;;;;;21.62;64.87;100880.28;4917074;29;19923;-64
2021/06/07 08:35:40;;;;;;;;;;;;;;;21.93;64.18;100880.63;4918102;29;20275;-64
2021/06/07 08:38:07;;;;;;;;;;;;;;;22.12;63.76;100882.09;4917124;29;20030;-64
2021/06/07 08:40:34;;;;;;;;;;;;;;;22.42;63.59;100886.47;4917372;29;20052;-64
2021/06/07 08:43:01;;;;;;;;;;;;;;;22.54;62.77;100884.88;4917147;29;19923;-64
2021/06/07 08:45:28;;;;;;;;;;;;;;;22.54;61.78;100870.63;4916852;29;20355;-64
2021/06/07 08:47:55;;;;;;;;;;;;;;;22.60;62.59;100874.91;4916802;29;20423;-64
2021/06/07 08:50:24;;;;;;;;;;;;;;;22.72;62.35;100877.75;4916823;29;19923;-64
2021/06/07 08:52:50;;;;;;;;;;;;;;;22.87;61.92;100879.91;4916861;29;20038;-65
2021/06/07 08:55:19;;;;;;;;;;;;;;;23.12;61.16;100868.53;4916836;29;19950;-64
2021/06/07 08:57:48;;;;;;;;;;;;;;;23.34;60.69;100862.28;4917181;29;19971;-64
2021/06/07 09:00:18;;;;;;;;;;;;;;;23.68;60.15;100877.19;4916773;29;20009;-65
2021/06/07 09:02:46;;;;;;;;;;;;;;;23.96;59.76;100868.63;4917027;29;19994;-65
2021/06/07 09:05:14;;;;;;;;;;;;;;;24.25;58.94;100869.44;4916887;29;20329;-64
2021/06/07 09:07:54;;;;;;;;;;;;;;;24.44;58.36;100871.59;4916719;29;19929;-64
2021/06/07 09:10:21;;;;;;;;;;;;;;;24.65;57.69;100877.03;4916887;29;20002;-64
2021/06/07 09:12:52;;;;;;;;;;;;;;;24.76;57.76;100872.44;4917047;29;19973;-65
2021/06/07 09:15:26;;;;;;;;;;;;;;;24.90;57.12;100871.97;4916906;29;20023;-64
2021/06/07 09:17:53;;;;;;;;;;;;;;;24.98;56.67;100880.31;4919438;29;19966;-65
2021/06/07 09:20:21;;;;;;;;;;;;;;;24.94;56.11;100884.31;4919899;29;19927;-65
2021/06/07 09:22:58;;;;;;;;;;;;;;;24.99;56.25;100881.16;4919746;29;19923;-64
2021/06/07 09:25:28;;;;;;;;;;;;;;;25.16;55.48;100875.09;4903261;29;19923;-64
2021/06/07 09:27:57;;;;;;;;;;;;;;;25.31;55.35;100884.81;4919932;29;19959;-65
2021/06/07 09:30:29;;;;;;;;;;;;;;;25.44;54.92;100876.94;4919838;29;20336;-65
2021/06/07 09:33:14;;;;;;;;;;;;;;;25.34;54.93;100872.66;4920082;29;20002;-65
2021/06/07 09:35:41;;;;;;;;;;;;;;;25.39;54.68;100883.78;4919649;29;19941;-65
2021/06/07 09:38:08;;;;;;;;;;;;;;;25.49;54.87;100882.38;4919678;29;19971;-64
2021/06/07 09:40:34;;;;;;;;;;;;;;;25.53;54.55;100877.53;4919946;29;20013;-64
2021/06/07 09:43:02;;;;;;;;;;;;;;;25.70;53.93;100877.09;4919550;29;19982;-65
2021/06/07 09:45:42;;;;;;;;;;;;;;;25.87;53.61;100880.75;4919463;29;19982;-65
2021/06/07 09:48:10;;;;;;;;;;;;;;;25.88;53.57;100876.69;4919514;29;20022;-67
2021/06/07 09:50:36;;;;;;;;;;;;;;;25.87;52.89;100873.00;4919773;29;19973;-67
2021/06/07 09:53:03;;;;;;;;;;;;;;;25.92;52.94;100872.72;4919855;29;20338;-65
2021/06/07 09:55:32;;;;;;;;;;;;;;;26.14;52.79;100873.13;4919932;29;19974;-65
2021/06/07 09:58:01;;;;;;;;;;;;;;;26.33;52.35;100872.28;4919579;29;19972;-65
2021/06/07 10:00:32;;;;;;;;;;;;;;;26.52;51.99;100871.41;4919305;29;19923;-65
2021/06/07 10:03:17;;;;;;;;;;;;;;;26.60;52.10;100879.75;4919588;29;19923;-65
2021/06/07 10:05:45;;;;;;;;;;;;;;;26.75;51.85;100880.00;4919081;29;19955;-65
2021/06/07 10:08:11;;;;;;;;;;;;;;;26.87;52.01;100871.19;4919197;29;20398;-64
2021/06/07 10:10:39;;;;;;;;;;;;;;;26.96;51.47;100880.34;4919054;29;20403;-67
2021/06/07 10:13:06;;;;;;;;;;;;;;;27.10;51.55;100874.84;4920141;29;19923;-65
2021/06/07 10:15:34;;;;;;;;;;;;;;;27.25;50.98;100878.81;4918988;29;20284;-65
2021/06/07 10:18:02;;;;;;;;;;;;;;;27.36;50.91;100887.56;4919455;29;19929;-65
2021/06/07 10:23:00;;;;;;;;;;;;;;;27.69;50.87;100885.94;4919158;29;19927;-64
2021/06/07 10:25:27;;;;;;;;;;;;;;;27.82;50.80;100873.03;4918993;29;19923;-65
2021/06/07 10:27:54;;;;;;;;;;;;;;;27.93;51.07;100882.59;4918345;29;19967;-65
2021/06/07 10:30:22;;;;;;;;;;;;;;;28.08;51.22;100884.44;4918758;29;20018;-66
2021/06/07 10:32:50;;;;;;;;;;;;;;;28.31;50.87;100880.59;4918868;29;20035;-64
2021/06/07 10:35:28;;;;;;;;;;;;;;;28.42;50.81;100878.69;4918823;29;19979;-64
2021/06/07 10:38:13;;;;;;;;;;;;;;;28.58;50.80;100884.16;4918812;29;20088;-64
2021/06/07 10:40:43;;;;;;;;;;;;;;;28.63;50.29;100882.97;4901742;29;19942;-64
2021/06/07 10:43:11;;;;;;;;;;;;;;;28.68;50.58;100883.44;4918814;29;20358;-64
2021/06/07 10:45:40;;;;;;;;;;;;;;;28.71;50.55;100884.69;4918588;29;20329;-64
2021/06/07 10:48:08;;;;;;;;;;;;;;;28.87;50.02;100885.25;4918603;29;20009;-64
2021/06/07 10:50:39;;;;;;;;;;;;;;;28.81;50.11;100886.81;4918560;29;20026;-65
2021/06/07 10:53:06;;;;;;;;;;;;;;;28.54;50.28;100884.13;4918370;29;20380;-64
2021/06/07 10:55:41;;;;;;;;;;;;;;;28.40;49.81;100886.84;4918276;29;19939;-65
2021/06/07 10:58:15;;;;;;;;;;;;;;;28.33;49.60;100878.97;4918394;29;19978;-65
2021/06/07 11:00:43;;;;;;;;;;;;;;;28.14;49.91;100882.03;4918273;29;19962;-65
2021/06/07 11:03:31;;;;;;;;;;;;;;;28.08;49.95;100890.19;4918173;29;19923;-65
2021/06/07 11:06:00;;;;;;;;;;;;;;;28.14;50.26;100887.78;4918391;29;19969;-64
2021/06/07 11:08:30;;;;;;;;;;;;;;;28.22;49.47;100895.25;4918096;29;19966;-64
2021/06/07 11:11:02;;;;;;;;;;;;;;;28.24;49.70;100886.22;4918075;29;19923;-64
2021/06/07 11:13:33;;;;;;;;;;;;;;;28.21;49.45;100884.19;4917902;29;19967;-64
2021/06/07 11:16:01;;;;;;;;;;;;;;;28.09;49.95;100885.25;4918290;29;19927;-64
2021/06/07 11:18:32;;;;;;;;;;;;;;;28.30;49.74;100890.41;4917820;29;20356;-65
2021/06/07 11:20:59;;;;;;;;;;;;;;;28.34;49.53;100895.00;4917903;29;19927;-65
2021/06/07 11:23:32;;;;;;;;;;;;;;;28.46;49.04;100891.03;4901338;29;19923;-64
2021/06/07 11:25:59;;;;;;;;;;;;;;;28.54;48.93;100895.59;4917587;29;19923;-64
2021/06/07 11:28:29;;;;;;;;;;;;;;;28.44;48.73;100887.72;4918062;29;19977;-64
2021/06/07 11:30:56;;;;;;;;;;;;;;;28.46;48.92;100893.06;4917628;29;19973;-65
2021/06/07 11:33:24;;;;;;;;;;;;;;;28.56;48.77;100884.56;4917638;29;20025;-65
2021/06/07 11:35:51;;;;;;;;;;;;;;;28.57;48.33;100879.63;4917584;29;19923;-64
2021/06/07 11:38:34;;;;;;;;;;;;;;;28.45;48.69;100883.63;4917601;29;20367;-64
2021/06/07 11:41:03;;;;;;;;;;;;;;;28.43;48.83;100883.19;4917759;29;20009;-64
2021/06/07 11:43:47;;;;;;;;;;;;;;;28.49;48.65;100875.06;4917774;29;20047;-64
2021/06/07 11:46:29;;;;;;;;;;;;;;;28.40;48.14;100866.75;4917259;29;20403;-64
2021/06/07 11:49:07;;;;;;;;;;;;;;;28.44;47.98;100867.59;4918462;29;19995;-64
2021/06/07 11:51:35;;;;;;;;;;;;;;;28.58;47.84;100867.75;4917299;29;20406;-64
2021/06/07 11:54:27;;;;;;;;;;;;;;;28.79;47.52;100874.94;4917657;29;20014;-64
2021/06/07 11:56:55;;;;;;;;;;;;;;;29.00;47.04;100872.25;4917165;29;19923;-64
2021/06/07 11:59:22;;;;;;;;;;;;;;;28.63;47.13;100871.50;4917305;29;20025;-65
2021/06/07 12:01:49;;;;;;;;;;;;;;;28.65;46.98;100872.75;4917607;29;20022;-66
2021/06/07 12:04:24;;;;;;;;;;;;;;;28.90;46.68;100870.09;4917552;29;20430;-65
2021/06/07 12:06:57;;;;;;;;;;;;;;;29.37;45.46;100871.25;4917235;29;20026;-65
2021/06/07 12:09:25;;;;;;;;;;;;;;;29.90;44.78;100876.47;4917531;29;20332;-64
2021/06/07 12:11:52;;;;;;;;;;;;;;;30.37;42.75;100871.72;4917185;29;20034;-64
2021/06/07 12:14:25;;;;;;;;;;;;;;;30.97;41.92;100873.00;4917064;29;19923;-64
2021/06/07 12:16:52;;;;;;;;;;;;;;;31.66;40.16;100865.03;4917426;29;20005;-64
2021/06/07 12:19:19;;;;;;;;;;;;;;;32.02;38.57;100868.66;4917223;29;19981;-64
2021/06/07 12:21:45;;;;;;;;;;;;;;;32.77;37.30;100877.66;4917412;29;20021;-63
2021/06/07 12:24:18;;;;;;;;;;;;;;;33.30;36.54;100872.69;4917029;29;19996;-64
2021/06/07 12:29:30;;;;;;;;;;;;;;;34.39;35.12;100868.00;4917052;29;19978;-65
2021/06/07 12:32:05;;;;;;;;;;;;;;;34.91;34.71;100870.53;4917280;29;19962;-64
2021/06/07 12:34:33;;;;;;;;;;;;;;;34.94;34.89;100863.81;4917016;29;19923;-65
2021/06/07 12:37:00;;;;;;;;;;;;;;;34.78;34.30;100866.59;4917514;29;19927;-64
2021/06/07 12:39:27;;;;;;;;;;;;;;;34.96;34.60;100863.38;4917233;29;20011;-64
2021/06/07 12:41:53;;;;;;;;;;;;;;;35.37;33.76;100852.25;4917042;29;19962;-64
2021/06/07 12:44:24;;;;;;;;;;;;;;;35.53;34.06;100859.47;4916794;29;20030;-65
2021/06/07 12:46:52;;;;;;;;;;;;;;;36.37;33.12;100860.94;4916819;29;19970;-65